Time;durP1;ratioP1;P1;durP2;ratioP2;P2;SDS_P1;SDS_P2;PMS_P1;PMS_P2;Temp;Humidity;BMP_temperature;BMP_pressure;BME280_temperature;BME280_humidity;BME280_pressure;Samples;Min_cycle;Max_cycle;Signal;HPM_P1;HPM_P2
2023/09/08 00:00:20;;;;;;;;;;;;;;;;;;2072259;28;20404;-71
2023/09/08 00:01:41;;;;;;;;;;;;;;;;;;2067593;28;19926;-71
2023/09/08 00:03:02;;;;;;;;;;;;;;;;;;2072497;28;19967;-72
2023/09/08 00:04:23;;;;;;;;;;;;;;;;;;2068096;28;19968;-71
2023/09/08 00:05:44;;;;;;;;;;;;;;;;;;2070642;28;19929;-74
2023/09/08 00:07:05;;;;;;;;;;;;;;;;;;2065790;28;19917;-72
2023/09/08 00:08:26;;;;;;;;;;;;;;;;;;2065998;28;19917;-71
2023/09/08 00:09:46;;;;;;;;;;;;;;;;;;2070742;28;19910;-70
2023/09/08 00:11:07;;;;;;;;;;;;;;;;;;2072176;28;20119;-72
2023/09/08 00:12:28;;;;;;;;;;;;;;;;;;2065872;28;19921;-71
2023/09/08 00:13:50;;;;;;;;;;;;;;;;;;2063405;28;19925;-72
2023/09/08 00:15:10;;;;;;;;;;;;;;;;;;2072446;28;19922;-71
2023/09/08 00:16:31;;;;;;;;;;;;;;;;;;2076196;28;19958;-72
2023/09/08 00:17:52;;;;;;;;;;;;;;;;;;2075025;28;19916;-71
2023/09/08 00:19:12;;;;;;;;;;;;;;;;;;2077594;28;20392;-70
2023/09/08 00:20:34;;;;;;;;;;;;;;;;;;2074170;28;19937;-71
2023/09/08 00:21:55;;;;;;;;;;;;;;;;;;2078707;28;19914;-71
2023/09/08 00:23:15;;;;;;;;;;;;;;;;;;2080751;28;19920;-71
2023/09/08 00:24:36;;;;;;;;;;;;;;;;;;2070078;28;20365;-71
2023/09/08 00:25:58;;;;;;;;;;;;;;;;;;2071742;28;19960;-71
2023/09/08 00:27:19;;;;;;;;;;;;;;;;;;2064843;28;20378;-71
2023/09/08 00:28:40;;;;;;;;;;;;;;;;;;2065149;28;19990;-71
2023/09/08 00:30:01;;;;;;;;;;;;;;;;;;2073013;28;19917;-71
2023/09/08 00:31:22;;;;;;;;;;;;;;;;;;2071757;28;20361;-74
2023/09/08 00:32:43;;;;;;;;;;;;;;;;;;2073802;28;20246;-71
2023/09/08 00:34:03;;;;;;;;;;;;;;;;;;2064511;28;20424;-72
2023/09/08 00:35:24;;;;;;;;;;;;;;;;;;2064194;28;20237;-70
2023/09/08 00:36:45;;;;;;;;;;;;;;;;;;2066075;28;19922;-71
2023/09/08 00:38:05;;;;;;;;;;;;;;;;;;2064244;28;20293;-71
2023/09/08 00:39:26;;;;;;;;;;;;;;;;;;2067612;28;19918;-71
2023/09/08 00:40:47;;;;;;;;;;;;;;;;;;2069586;28;19913;-71
2023/09/08 00:42:08;;;;;;;;;;;;;;;;;;2060743;28;19930;-71
2023/09/08 00:43:28;;;;;;;;;;;;;;;;;;2062764;28;19922;-71
2023/09/08 00:44:49;;;;;;;;;;;;;;;;;;2053288;28;20342;-71
2023/09/08 00:46:10;;;;;;;;;;;;;;;;;;2059851;28;19921;-73
2023/09/08 00:47:31;;;;;;;;;;;;;;;;;;2061845;28;19917;-72
2023/09/08 00:48:51;;;;;;;;;;;;;;;;;;2062779;28;19918;-71
2023/09/08 00:50:12;;;;;;;;;;;;;;;;;;2053002;28;19914;-71
2023/09/08 00:51:34;;;;;;;;;;;;;;;;;;2053725;28;19918;-71
2023/09/08 00:52:55;;;;;;;;;;;;;;;;;;2054469;28;19922;-71
2023/09/08 00:54:16;;;;;;;;;;;;;;;;;;2052488;28;19918;-71
2023/09/08 00:55:36;;;;;;;;;;;;;;;;;;2052599;28;19914;-72
2023/09/08 00:56:57;;;;;;;;;;;;;;;;;;2059978;28;21817;-71
2023/09/08 00:58:18;;;;;;;;;;;;;;;;;;2062548;28;19980;-71
2023/09/08 00:59:39;;;;;;;;;;;;;;;;;;2057367;28;19954;-71
2023/09/08 01:00:59;;;;;;;;;;;;;;;;;;2059448;28;19921;-72
2023/09/08 01:02:20;;;;;;;;;;;;;;;;;;2053967;28;19926;-71
2023/09/08 01:03:41;;;;;;;;;;;;;;;;;;2052857;28;20315;-71
2023/09/08 01:05:02;;;;;;;;;;;;;;;;;;2060432;28;19917;-71
2023/09/08 01:06:23;;;;;;;;;;;;;;;;;;2062479;28;20268;-71
2023/09/08 01:07:43;;;;;;;;;;;;;;;;;;2050378;28;19918;-71
2023/09/08 01:09:04;;;;;;;;;;;;;;;;;;2056321;28;19937;-71
2023/09/08 01:10:25;;;;;;;;;;;;;;;;;;2056290;28;19910;-71
2023/09/08 01:11:46;;;;;;;;;;;;;;;;;;2064491;28;19914;-71
2023/09/08 01:13:07;;;;;;;;;;;;;;;;;;2051642;28;19914;-72
2023/09/08 01:14:27;;;;;;;;;;;;;;;;;;2055497;28;19949;-71
2023/09/08 01:15:48;;;;;;;;;;;;;;;;;;2049363;28;19942;-71
2023/09/08 01:17:09;;;;;;;;;;;;;;;;;;2058094;28;19914;-71
2023/09/08 01:18:29;;;;;;;;;;;;;;;;;;2066290;28;20285;-71
2023/09/08 01:19:50;;;;;;;;;;;;;;;;;;2065394;28;19957;-72
2023/09/08 01:21:11;;;;;;;;;;;;;;;;;;2060540;28;19921;-71
2023/09/08 01:22:32;;;;;;;;;;;;;;;;;;2046454;29;20441;-70
2023/09/08 01:23:53;;;;;;;;;;;;;;;;;;2055756;28;20088;-71
2023/09/08 01:25:13;;;;;;;;;;;;;;;;;;2064141;28;19918;-71
2023/09/08 01:26:34;;;;;;;;;;;;;;;;;;2067502;28;19910;-70
2023/09/08 01:27:55;;;;;;;;;;;;;;;;;;2065525;28;19909;-71
2023/09/08 01:29:15;;;;;;;;;;;;;;;;;;2062096;28;19910;-72
2023/09/08 01:30:36;;;;;;;;;;;;;;;;;;2061677;28;19910;-71
2023/09/08 01:31:57;;;;;;;;;;;;;;;;;;2064311;28;19914;-71
2023/09/08 01:33:17;;;;;;;;;;;;;;;;;;2065303;28;19918;-71
2023/09/08 01:34:40;;;;;;;;;;;;;;;;;;2060903;28;19918;-71
2023/09/08 01:36:01;;;;;;;;;;;;;;;;;;2066668;28;19910;-71
2023/09/08 01:37:22;;;;;;;;;;;;;;;;;;2066016;28;20345;-71
2023/09/08 01:38:42;;;;;;;;;;;;;;;;;;2067076;28;20141;-71
2023/09/08 01:40:03;;;;;;;;;;;;;;;;;;2071587;28;19914;-71
2023/09/08 01:41:24;;;;;;;;;;;;;;;;;;2073570;28;19916;-71
2023/09/08 01:42:44;;;;;;;;;;;;;;;;;;2069676;28;19975;-71
2023/09/08 01:44:07;;;;;;;;;;;;;;;;;;2070595;28;19913;-71
2023/09/08 01:45:28;;;;;;;;;;;;;;;;;;2066074;28;20468;-70
2023/09/08 01:46:51;;;;;;;;;;;;;;;;;;2069069;28;19922;-73
2023/09/08 01:48:11;;;;;;;;;;;;;;;;;;2063426;28;19913;-71
2023/09/08 01:49:32;;;;;;;;;;;;;;;;;;2066372;28;19991;-72
2023/09/08 01:50:53;;;;;;;;;;;;;;;;;;2071071;28;20197;-73
2023/09/08 01:52:13;;;;;;;;;;;;;;;;;;2062476;28;19921;-71
2023/09/08 01:53:34;;;;;;;;;;;;;;;;;;2068831;28;19917;-70
2023/09/08 01:54:55;;;;;;;;;;;;;;;;;;2065034;28;19922;-71
2023/09/08 01:56:16;;;;;;;;;;;;;;;;;;2068418;28;19917;-73
2023/09/08 01:57:36;;;;;;;;;;;;;;;;;;2069917;28;20353;-71
2023/09/08 01:58:59;;;;;;;;;;;;;;;;;;2070336;28;19922;-75
2023/09/08 02:00:19;;;;;;;;;;;;;;;;;;2070141;28;19921;-75
2023/09/08 02:01:40;;;;;;;;;;;;;;;;;;2071340;28;19921;-76
2023/09/08 02:03:01;;;;;;;;;;;;;;;;;;2060192;28;20426;-75
2023/09/08 02:04:21;;;;;;;;;;;;;;;;;;2064795;28;19913;-75
2023/09/08 02:05:42;;;;;;;;;;;;;;;;;;2071104;28;19954;-74
2023/09/08 02:07:04;;;;;;;;;;;;;;;;;;2070566;28;19928;-75
2023/09/08 02:08:25;;;;;;;;;;;;;;;;;;2061695;28;19914;-74
2023/09/08 02:09:46;;;;;;;;;;;;;;;;;;2067973;28;19918;-75
2023/09/08 02:11:06;;;;;;;;;;;;;;;;;;2060112;28;19922;-75
2023/09/08 02:12:27;;;;;;;;;;;;;;;;;;2067079;28;19937;-76
2023/09/08 02:13:48;;;;;;;;;;;;;;;;;;2064366;28;19913;-75
2023/09/08 02:15:09;;;;;;;;;;;;;;;;;;2062892;28;20285;-74
2023/09/08 02:16:29;;;;;;;;;;;;;;;;;;2066575;28;20373;-75
2023/09/08 02:17:50;;;;;;;;;;;;;;;;;;2061012;28;20289;-74
2023/09/08 02:19:11;;;;;;;;;;;;;;;;;;2062294;28;20017;-75
2023/09/08 02:20:31;;;;;;;;;;;;;;;;;;2067074;28;19921;-74
2023/09/08 02:21:53;;;;;;;;;;;;;;;;;;2070239;28;19914;-73
2023/09/08 02:23:13;;;;;;;;;;;;;;;;;;2072713;28;19971;-75
2023/09/08 02:24:34;;;;;;;;;;;;;;;;;;2069753;28;19910;-75
2023/09/08 02:25:55;;;;;;;;;;;;;;;;;;2068559;28;20019;-73
2023/09/08 02:27:15;;;;;;;;;;;;;;;;;;2070757;28;20357;-75
2023/09/08 02:28:36;;;;;;;;;;;;;;;;;;2062393;28;19941;-74
2023/09/08 02:29:57;;;;;;;;;;;;;;;;;;2067807;28;19964;-75
2023/09/08 02:31:17;;;;;;;;;;;;;;;;;;2063221;28;19921;-76
2023/09/08 02:32:38;;;;;;;;;;;;;;;;;;2067459;28;19949;-76
2023/09/08 02:33:59;;;;;;;;;;;;;;;;;;2061052;28;19914;-76
2023/09/08 02:35:20;;;;;;;;;;;;;;;;;;2069425;28;19917;-75
2023/09/08 02:36:40;;;;;;;;;;;;;;;;;;2072275;28;19921;-75
2023/09/08 02:38:01;;;;;;;;;;;;;;;;;;2070898;28;19913;-76
2023/09/08 02:39:23;;;;;;;;;;;;;;;;;;2070461;28;19975;-74
2023/09/08 02:40:44;;;;;;;;;;;;;;;;;;2072673;28;19963;-75
2023/09/08 02:42:04;;;;;;;;;;;;;;;;;;2071627;28;19914;-75
2023/09/08 02:43:25;;;;;;;;;;;;;;;;;;2070566;28;19921;-75
2023/09/08 02:44:46;;;;;;;;;;;;;;;;;;2070462;28;19954;-74
2023/09/08 02:46:09;;;;;;;;;;;;;;;;;;2068908;28;19917;-73
2023/09/08 02:47:29;;;;;;;;;;;;;;;;;;2063803;28;19914;-74
2023/09/08 02:48:50;;;;;;;;;;;;;;;;;;2066500;28;19952;-74
2023/09/08 02:50:11;;;;;;;;;;;;;;;;;;2062624;28;19917;-74
2023/09/08 02:51:31;;;;;;;;;;;;;;;;;;2068086;28;19921;-75
2023/09/08 02:52:52;;;;;;;;;;;;;;;;;;2069296;28;19983;-74
2023/09/08 02:54:13;;;;;;;;;;;;;;;;;;2070307;28;20400;-75
2023/09/08 02:55:34;;;;;;;;;;;;;;;;;;2068115;28;19971;-75
2023/09/08 02:56:54;;;;;;;;;;;;;;;;;;2061806;28;19922;-75
2023/09/08 02:58:15;;;;;;;;;;;;;;;;;;2067335;28;20671;-75
2023/09/08 02:59:36;;;;;;;;;;;;;;;;;;2061815;28;20322;-75
2023/09/08 03:00:56;;;;;;;;;;;;;;;;;;2068042;28;19964;-75
2023/09/08 03:02:17;;;;;;;;;;;;;;;;;;2066454;28;19933;-75
2023/09/08 03:03:38;;;;;;;;;;;;;;;;;;2061697;28;19913;-75
2023/09/08 03:05:00;;;;;;;;;;;;;;;;;;2066483;28;19973;-76
2023/09/08 03:06:21;;;;;;;;;;;;;;;;;;2060713;28;19925;-75
2023/09/08 03:07:41;;;;;;;;;;;;;;;;;;2063552;28;19922;-75
2023/09/08 03:09:02;;;;;;;;;;;;;;;;;;2069253;28;19944;-71
2023/09/08 03:10:23;;;;;;;;;;;;;;;;;;2061765;28;19988;-71
2023/09/08 03:11:43;;;;;;;;;;;;;;;;;;2066340;28;19917;-71
2023/09/08 03:13:04;;;;;;;;;;;;;;;;;;2063585;28;20249;-72
2023/09/08 03:14:25;;;;;;;;;;;;;;;;;;2063596;28;19914;-71
2023/09/08 03:15:46;;;;;;;;;;;;;;;;;;2060930;28;19910;-72
2023/09/08 03:17:06;;;;;;;;;;;;;;;;;;2072763;28;19914;-72
2023/09/08 03:18:27;;;;;;;;;;;;;;;;;;2065656;28;19917;-71
2023/09/08 03:19:48;;;;;;;;;;;;;;;;;;2067720;28;19914;-70
2023/09/08 03:21:09;;;;;;;;;;;;;;;;;;2065069;28;20291;-72
2023/09/08 03:22:30;;;;;;;;;;;;;;;;;;2060076;28;20311;-71
2023/09/08 03:23:50;;;;;;;;;;;;;;;;;;2066429;28;19921;-72
2023/09/08 03:25:11;;;;;;;;;;;;;;;;;;2073813;28;20269;-70
2023/09/08 03:26:32;;;;;;;;;;;;;;;;;;2071083;28;19918;-71
2023/09/08 03:27:52;;;;;;;;;;;;;;;;;;2073927;28;19916;-72
2023/09/08 03:29:13;;;;;;;;;;;;;;;;;;2073284;28;19921;-71
2023/09/08 03:30:34;;;;;;;;;;;;;;;;;;2072796;28;19979;-71
2023/09/08 03:31:54;;;;;;;;;;;;;;;;;;2082238;28;19916;-71
2023/09/08 03:33:15;;;;;;;;;;;;;;;;;;2082210;28;20513;-71
2023/09/08 03:34:39;;;;;;;;;;;;;;;;;;2071126;28;19920;-71
2023/09/08 03:36:00;;;;;;;;;;;;;;;;;;2072859;28;19910;-71
2023/09/08 03:37:22;;;;;;;;;;;;;;;;;;2075676;28;19909;-70
2023/09/08 03:38:42;;;;;;;;;;;;;;;;;;2066155;28;20344;-72
2023/09/08 03:40:06;;;;;;;;;;;;;;;;;;2073331;28;19920;-71
2023/09/08 03:41:27;;;;;;;;;;;;;;;;;;2075854;28;20392;-71
2023/09/08 03:42:48;;;;;;;;;;;;;;;;;;2080308;28;19921;-71
2023/09/08 03:44:08;;;;;;;;;;;;;;;;;;2063430;28;19984;-72
2023/09/08 03:45:29;;;;;;;;;;;;;;;;;;2067157;28;19956;-72
2023/09/08 03:46:50;;;;;;;;;;;;;;;;;;2063434;28;19960;-72
2023/09/08 03:48:11;;;;;;;;;;;;;;;;;;2068604;28;19993;-71
2023/09/08 03:49:31;;;;;;;;;;;;;;;;;;2069552;28;20413;-72
2023/09/08 03:50:52;;;;;;;;;;;;;;;;;;2071025;28;20396;-72
2023/09/08 03:52:13;;;;;;;;;;;;;;;;;;2060794;28;20286;-71
2023/09/08 03:53:33;;;;;;;;;;;;;;;;;;2069795;28;19934;-71
2023/09/08 03:54:54;;;;;;;;;;;;;;;;;;2069582;28;19925;-72
2023/09/08 03:56:15;;;;;;;;;;;;;;;;;;2071260;28;19974;-71
2023/09/08 03:57:35;;;;;;;;;;;;;;;;;;2071220;28;20337;-74
2023/09/08 03:58:56;;;;;;;;;;;;;;;;;;2063025;28;19932;-72
2023/09/08 04:00:21;;;;;;;;;;;;;;;;;;2068632;28;19979;-71
2023/09/08 04:01:41;;;;;;;;;;;;;;;;;;2062395;28;19972;-71
2023/09/08 04:03:02;;;;;;;;;;;;;;;;;;2063841;28;19922;-72
2023/09/08 04:04:23;;;;;;;;;;;;;;;;;;2069063;28;19913;-71
2023/09/08 04:05:44;;;;;;;;;;;;;;;;;;2062595;28;19929;-71
2023/09/08 04:07:04;;;;;;;;;;;;;;;;;;2067262;28;19944;-71
2023/09/08 04:08:25;;;;;;;;;;;;;;;;;;2062453;28;20353;-70
2023/09/08 04:09:46;;;;;;;;;;;;;;;;;;2061264;28;20330;-72
2023/09/08 04:11:06;;;;;;;;;;;;;;;;;;2068292;28;20280;-71
2023/09/08 04:12:27;;;;;;;;;;;;;;;;;;2070132;28;20019;-71
2023/09/08 04:13:48;;;;;;;;;;;;;;;;;;2063325;28;19926;-72
2023/09/08 04:15:08;;;;;;;;;;;;;;;;;;2067944;28;20281;-71
2023/09/08 04:16:29;;;;;;;;;;;;;;;;;;2071168;28;19921;-71
2023/09/08 04:17:50;;;;;;;;;;;;;;;;;;2061719;28;21401;-71
2023/09/08 04:19:11;;;;;;;;;;;;;;;;;;2068490;28;19914;-71
2023/09/08 04:20:31;;;;;;;;;;;;;;;;;;2065520;28;19945;-72
2023/09/08 04:21:52;;;;;;;;;;;;;;;;;;2069173;28;19917;-72
2023/09/08 04:23:13;;;;;;;;;;;;;;;;;;2052769;28;20006;-72
2023/09/08 04:24:33;;;;;;;;;;;;;;;;;;2056606;28;19922;-72
2023/09/08 04:25:54;;;;;;;;;;;;;;;;;;2057347;28;20448;-73
2023/09/08 04:27:15;;;;;;;;;;;;;;;;;;2054702;28;19922;-72
2023/09/08 04:28:35;;;;;;;;;;;;;;;;;;2060667;28;20345;-72
2023/09/08 04:29:56;;;;;;;;;;;;;;;;;;2063827;28;19917;-72
2023/09/08 04:31:18;;;;;;;;;;;;;;;;;;2059865;28;20365;-72
2023/09/08 04:32:38;;;;;;;;;;;;;;;;;;2058254;28;20045;-71
2023/09/08 04:33:59;;;;;;;;;;;;;;;;;;2069265;28;19914;-71
2023/09/08 04:35:20;;;;;;;;;;;;;;;;;;2072113;28;19929;-72
2023/09/08 04:36:41;;;;;;;;;;;;;;;;;;2073394;28;19921;-71
2023/09/08 04:38:01;;;;;;;;;;;;;;;;;;2071930;28;19921;-71
2023/09/08 04:39:22;;;;;;;;;;;;;;;;;;2073378;28;19937;-71
2023/09/08 04:40:43;;;;;;;;;;;;;;;;;;2071993;28;20070;-71
2023/09/08 04:42:03;;;;;;;;;;;;;;;;;;2062734;28;19992;-71
2023/09/08 04:43:24;;;;;;;;;;;;;;;;;;2067747;28;19925;-71
2023/09/08 04:44:45;;;;;;;;;;;;;;;;;;2059395;28;19913;-71
2023/09/08 04:46:05;;;;;;;;;;;;;;;;;;2060523;28;19929;-71
2023/09/08 04:47:26;;;;;;;;;;;;;;;;;;2056206;28;20254;-70
2023/09/08 04:48:47;;;;;;;;;;;;;;;;;;2063870;28;19922;-71
2023/09/08 04:50:08;;;;;;;;;;;;;;;;;;2065835;28;19921;-71
2023/09/08 04:51:28;;;;;;;;;;;;;;;;;;2057226;28;19922;-71
2023/09/08 04:52:49;;;;;;;;;;;;;;;;;;2065584;28;19921;-71
2023/09/08 04:54:10;;;;;;;;;;;;;;;;;;2068084;28;19929;-71
2023/09/08 04:55:30;;;;;;;;;;;;;;;;;;2072144;28;19918;-71
2023/09/08 04:56:51;;;;;;;;;;;;;;;;;;2072138;28;20265;-71
2023/09/08 04:58:12;;;;;;;;;;;;;;;;;;2064160;28;20374;-71
2023/09/08 04:59:33;;;;;;;;;;;;;;;;;;2069590;28;19921;-71
2023/09/08 05:00:53;;;;;;;;;;;;;;;;;;2068811;28;19918;-72
2023/09/08 05:02:15;;;;;;;;;;;;;;;;;;2071743;28;19918;-71
2023/09/08 05:03:35;;;;;;;;;;;;;;;;;;2063423;28;19993;-72
2023/09/08 05:04:56;;;;;;;;;;;;;;;;;;2062565;28;19921;-72
2023/09/08 05:06:17;;;;;;;;;;;;;;;;;;2056435;28;19988;-73
2023/09/08 05:07:37;;;;;;;;;;;;;;;;;;2067016;28;19921;-72
2023/09/08 05:08:59;;;;;;;;;;;;;;;;;;2070782;28;19913;-71
2023/09/08 05:10:20;;;;;;;;;;;;;;;;;;2060298;28;20319;-71
2023/09/08 05:11:40;;;;;;;;;;;;;;;;;;2068666;28;19921;-71
2023/09/08 05:13:01;;;;;;;;;;;;;;;;;;2058407;28;19922;-71
2023/09/08 05:14:24;;;;;;;;;;;;;;;;;;2070130;28;19914;-71
2023/09/08 05:15:48;;;;;;;;;;;;;;;;;;2072395;28;19920;-73
2023/09/08 05:17:09;;;;;;;;;;;;;;;;;;2065217;28;19914;-71
2023/09/08 05:18:29;;;;;;;;;;;;;;;;;;2060072;28;20003;-70
2023/09/08 05:19:50;;;;;;;;;;;;;;;;;;2072673;28;19917;-70
2023/09/08 05:21:11;;;;;;;;;;;;;;;;;;2072429;28;19937;-72
2023/09/08 05:22:31;;;;;;;;;;;;;;;;;;2082077;28;20380;-71
2023/09/08 05:23:52;;;;;;;;;;;;;;;;;;2068867;28;19929;-70
2023/09/08 05:25:13;;;;;;;;;;;;;;;;;;2068942;28;19913;-71
2023/09/08 05:26:34;;;;;;;;;;;;;;;;;;2071258;28;20389;-70
2023/09/08 05:27:54;;;;;;;;;;;;;;;;;;2064728;28;19921;-71
2023/09/08 05:29:15;;;;;;;;;;;;;;;;;;2068171;28;19920;-71
2023/09/08 05:30:36;;;;;;;;;;;;;;;;;;2070828;28;20367;-71
2023/09/08 05:31:56;;;;;;;;;;;;;;;;;;2072414;28;20324;-73
2023/09/08 05:33:17;;;;;;;;;;;;;;;;;;2064856;28;19918;-71
2023/09/08 05:34:38;;;;;;;;;;;;;;;;;;2067979;28;19914;-72
2023/09/08 05:35:58;;;;;;;;;;;;;;;;;;2070876;28;19916;-72
2023/09/08 05:37:19;;;;;;;;;;;;;;;;;;2063828;28;19917;-72
2023/09/08 05:38:40;;;;;;;;;;;;;;;;;;2057014;28;19910;-73
2023/09/08 05:40:00;;;;;;;;;;;;;;;;;;2063438;28;19910;-71
2023/09/08 05:41:21;;;;;;;;;;;;;;;;;;2062610;28;19953;-71
2023/09/08 05:42:42;;;;;;;;;;;;;;;;;;2066969;28;20309;-72
2023/09/08 05:44:03;;;;;;;;;;;;;;;;;;2052990;28;20754;-73
2023/09/08 05:45:25;;;;;;;;;;;;;;;;;;2060940;28;19917;-71
2023/09/08 05:46:46;;;;;;;;;;;;;;;;;;2054321;28;19914;-71
2023/09/08 05:48:06;;;;;;;;;;;;;;;;;;2058407;28;19918;-71
2023/09/08 05:49:27;;;;;;;;;;;;;;;;;;2055925;28;19941;-71
2023/09/08 05:50:48;;;;;;;;;;;;;;;;;;2058456;28;19918;-71
2023/09/08 05:52:09;;;;;;;;;;;;;;;;;;2062162;28;19922;-71
2023/09/08 05:53:29;;;;;;;;;;;;;;;;;;2060427;28;20341;-70
2023/09/08 05:54:50;;;;;;;;;;;;;;;;;;2063060;28;19922;-71
2023/09/08 05:56:11;;;;;;;;;;;;;;;;;;2065467;28;19914;-71
2023/09/08 05:57:31;;;;;;;;;;;;;;;;;;2061431;28;19985;-70
2023/09/08 05:58:52;;;;;;;;;;;;;;;;;;2055889;28;19914;-71
2023/09/08 06:00:13;;;;;;;;;;;;;;;;;;2061683;28;20477;-73
2023/09/08 06:01:33;;;;;;;;;;;;;;;;;;2054437;28;19914;-71
2023/09/08 06:02:54;;;;;;;;;;;;;;;;;;2055166;28;19981;-71
2023/09/08 06:04:15;;;;;;;;;;;;;;;;;;2058074;28;19953;-71
2023/09/08 06:05:36;;;;;;;;;;;;;;;;;;2054093;28;20005;-72
2023/09/08 06:06:56;;;;;;;;;;;;;;;;;;2059840;28;20373;-72
2023/09/08 06:08:17;;;;;;;;;;;;;;;;;;2061680;28;19953;-73
2023/09/08 06:09:38;;;;;;;;;;;;;;;;;;2056985;28;19926;-72
2023/09/08 06:10:58;;;;;;;;;;;;;;;;;;2060434;28;20428;-72
2023/09/08 06:12:19;;;;;;;;;;;;;;;;;;2060588;28;19921;-73
2023/09/08 06:13:40;;;;;;;;;;;;;;;;;;2052414;28;20224;-72
2023/09/08 06:15:00;;;;;;;;;;;;;;;;;;2059277;28;19917;-72
2023/09/08 06:16:21;;;;;;;;;;;;;;;;;;2051909;28;20330;-72
2023/09/08 06:17:42;;;;;;;;;;;;;;;;;;2053681;28;19922;-72
2023/09/08 06:19:03;;;;;;;;;;;;;;;;;;2060772;28;20333;-73
2023/09/08 06:20:24;;;;;;;;;;;;;;;;;;2054562;28;19921;-72
2023/09/08 06:21:45;;;;;;;;;;;;;;;;;;2062166;28;19913;-71
2023/09/08 06:23:06;;;;;;;;;;;;;;;;;;2063188;28;20404;-72
2023/09/08 06:24:26;;;;;;;;;;;;;;;;;;2058234;28;19980;-73
2023/09/08 06:25:47;;;;;;;;;;;;;;;;;;2061077;28;19913;-72
2023/09/08 06:27:08;;;;;;;;;;;;;;;;;;2060752;28;19922;-72
2023/09/08 06:28:29;;;;;;;;;;;;;;;;;;2063938;28;19922;-72
2023/09/08 06:29:49;;;;;;;;;;;;;;;;;;2061569;28;19968;-72
2023/09/08 06:31:10;;;;;;;;;;;;;;;;;;2053365;28;20449;-71
2023/09/08 06:32:31;;;;;;;;;;;;;;;;;;2057698;28;19914;-72
2023/09/08 06:33:51;;;;;;;;;;;;;;;;;;2052795;28;19934;-72
2023/09/08 06:35:12;;;;;;;;;;;;;;;;;;2060522;28;19925;-72
2023/09/08 06:36:33;;;;;;;;;;;;;;;;;;2068218;28;19917;-71
2023/09/08 06:37:54;;;;;;;;;;;;;;;;;;2069764;28;19918;-72
2023/09/08 06:39:14;;;;;;;;;;;;;;;;;;2069477;28;20275;-77
2023/09/08 06:40:35;;;;;;;;;;;;;;;;;;2070834;28;19918;-75
2023/09/08 06:41:56;;;;;;;;;;;;;;;;;;2070113;28;19980;-77
2023/09/08 06:43:16;;;;;;;;;;;;;;;;;;2059633;28;19941;-77
2023/09/08 06:44:37;;;;;;;;;;;;;;;;;;2063927;28;19913;-72
2023/09/08 06:45:58;;;;;;;;;;;;;;;;;;2064833;28;19917;-70
2023/09/08 06:47:18;;;;;;;;;;;;;;;;;;2067262;28;19969;-72
2023/09/08 06:48:39;;;;;;;;;;;;;;;;;;2069172;28;20281;-71
2023/09/08 06:50:00;;;;;;;;;;;;;;;;;;2072163;28;19914;-69
2023/09/08 06:51:21;;;;;;;;;;;;;;;;;;2065350;28;19913;-71
2023/09/08 06:52:41;;;;;;;;;;;;;;;;;;2063643;28;20301;-70
2023/09/08 06:54:02;;;;;;;;;;;;;;;;;;2064400;28;19918;-70
2023/09/08 06:55:23;;;;;;;;;;;;;;;;;;2067860;28;20432;-70
2023/09/08 06:56:44;;;;;;;;;;;;;;;;;;2072066;28;19937;-70
2023/09/08 06:58:05;;;;;;;;;;;;;;;;;;2070118;28;19914;-70
2023/09/08 06:59:25;;;;;;;;;;;;;;;;;;2066758;28;19929;-71
2023/09/08 07:00:46;;;;;;;;;;;;;;;;;;2069324;28;20353;-69
2023/09/08 07:02:07;;;;;;;;;;;;;;;;;;2069618;28;19918;-72
2023/09/08 07:03:27;;;;;;;;;;;;;;;;;;2069674;28;20074;-73
2023/09/08 07:04:48;;;;;;;;;;;;;;;;;;2069490;28;19920;-72
2023/09/08 07:06:09;;;;;;;;;;;;;;;;;;2068414;28;20851;-73
2023/09/08 07:07:29;;;;;;;;;;;;;;;;;;2071255;28;19969;-72
2023/09/08 07:08:50;;;;;;;;;;;;;;;;;;2068616;28;19971;-71
2023/09/08 07:10:11;;;;;;;;;;;;;;;;;;2071629;28;20320;-70
2023/09/08 07:11:32;;;;;;;;;;;;;;;;;;2060615;28;19910;-71
2023/09/08 07:12:52;;;;;;;;;;;;;;;;;;2069200;28;19960;-73
2023/09/08 07:14:13;;;;;;;;;;;;;;;;;;2060345;28;20121;-72
2023/09/08 07:15:34;;;;;;;;;;;;;;;;;;2068675;28;19917;-70
2023/09/08 07:16:54;;;;;;;;;;;;;;;;;;2069223;28;20320;-70
2023/09/08 07:18:15;;;;;;;;;;;;;;;;;;2069157;28;19954;-71
2023/09/08 07:19:36;;;;;;;;;;;;;;;;;;2065176;28;19953;-70
2023/09/08 07:20:56;;;;;;;;;;;;;;;;;;2068331;28;20364;-71
2023/09/08 07:22:17;;;;;;;;;;;;;;;;;;2072609;28;19909;-71
2023/09/08 07:23:38;;;;;;;;;;;;;;;;;;2062028;28;19921;-72
2023/09/08 07:24:59;;;;;;;;;;;;;;;;;;2066992;28;19921;-72
2023/09/08 07:26:19;;;;;;;;;;;;;;;;;;2067601;28;19922;-72
2023/09/08 07:27:40;;;;;;;;;;;;;;;;;;2070821;28;19914;-72
2023/09/08 07:29:01;;;;;;;;;;;;;;;;;;2067803;28;19916;-72
2023/09/08 07:30:21;;;;;;;;;;;;;;;;;;2071962;28;20285;-71
2023/09/08 07:31:42;;;;;;;;;;;;;;;;;;2063859;28;19914;-71
2023/09/08 07:33:04;;;;;;;;;;;;;;;;;;2068849;28;19910;-71
2023/09/08 07:34:25;;;;;;;;;;;;;;;;;;2063209;28;20378;-72
2023/09/08 07:35:45;;;;;;;;;;;;;;;;;;2059260;28;19918;-72
2023/09/08 07:37:06;;;;;;;;;;;;;;;;;;2057139;28;19918;-71
2023/09/08 07:38:27;;;;;;;;;;;;;;;;;;2058598;28;19917;-71
2023/09/08 07:39:48;;;;;;;;;;;;;;;;;;2063560;28;19914;-72
2023/09/08 07:41:08;;;;;;;;;;;;;;;;;;2059195;28;20547;-73
2023/09/08 07:42:29;;;;;;;;;;;;;;;;;;2060218;28;19914;-71
2023/09/08 07:43:50;;;;;;;;;;;;;;;;;;2068836;28;19914;-72
2023/09/08 07:45:11;;;;;;;;;;;;;;;;;;2061992;28;20271;-72
2023/09/08 07:46:32;;;;;;;;;;;;;;;;;;2068972;28;19910;-70
2023/09/08 07:47:52;;;;;;;;;;;;;;;;;;2062640;28;19914;-73
2023/09/08 07:49:14;;;;;;;;;;;;;;;;;;2060237;28;20513;-73
2023/09/08 07:50:35;;;;;;;;;;;;;;;;;;2063005;28;20266;-73
2023/09/08 07:51:55;;;;;;;;;;;;;;;;;;2056450;28;19910;-72
2023/09/08 07:53:16;;;;;;;;;;;;;;;;;;2063056;28;20353;-71
2023/09/08 07:54:37;;;;;;;;;;;;;;;;;;2071336;28;19917;-72
2023/09/08 07:55:58;;;;;;;;;;;;;;;;;;2070002;28;19998;-73
2023/09/08 07:57:18;;;;;;;;;;;;;;;;;;2074091;28;19916;-71
2023/09/08 07:58:39;;;;;;;;;;;;;;;;;;2064714;28;20267;-71
2023/09/08 08:00:00;;;;;;;;;;;;;;;;;;2073141;28;20285;-71
2023/09/08 08:01:21;;;;;;;;;;;;;;;;;;2059073;28;19965;-73
2023/09/08 08:02:41;;;;;;;;;;;;;;;;;;2066988;28;20392;-71
2023/09/08 08:04:03;;;;;;;;;;;;;;;;;;2067375;28;19918;-71
2023/09/08 08:05:24;;;;;;;;;;;;;;;;;;2077350;28;19909;-71
2023/09/08 08:06:44;;;;;;;;;;;;;;;;;;2073534;28;20125;-72
2023/09/08 08:08:06;;;;;;;;;;;;;;;;;;2073943;28;19913;-71
2023/09/08 08:09:27;;;;;;;;;;;;;;;;;;2072222;28;19921;-69
2023/09/08 08:10:48;;;;;;;;;;;;;;;;;;2072142;28;19976;-72
2023/09/08 08:12:08;;;;;;;;;;;;;;;;;;2080209;28;20332;-72
2023/09/08 08:13:29;;;;;;;;;;;;;;;;;;2077432;28;19909;-70
2023/09/08 08:14:50;;;;;;;;;;;;;;;;;;2072865;28;20324;-70
2023/09/08 08:16:10;;;;;;;;;;;;;;;;;;2073289;28;19910;-70
2023/09/08 08:17:31;;;;;;;;;;;;;;;;;;2073219;28;19909;-71
2023/09/08 08:18:52;;;;;;;;;;;;;;;;;;2073332;28;19914;-70
2023/09/08 08:20:17;;;;;;;;;;;;;;;;;;2074409;28;19909;-71
2023/09/08 08:21:37;;;;;;;;;;;;;;;;;;2064516;28;19910;-71
2023/09/08 08:22:58;;;;;;;;;;;;;;;;;;2071265;28;19914;-69
2023/09/08 08:24:19;;;;;;;;;;;;;;;;;;2072184;28;19917;-71
2023/09/08 08:25:40;;;;;;;;;;;;;;;;;;2073670;28;19909;-71
2023/09/08 08:27:01;;;;;;;;;;;;;;;;;;2073066;28;20373;-73
2023/09/08 08:28:22;;;;;;;;;;;;;;;;;;2065977;28;19913;-72
2023/09/08 08:29:43;;;;;;;;;;;;;;;;;;2071379;28;20361;-70
2023/09/08 08:31:04;;;;;;;;;;;;;;;;;;2071214;28;19909;-71
2023/09/08 08:32:25;;;;;;;;;;;;;;;;;;2073517;28;19913;-71
2023/09/08 08:33:46;;;;;;;;;;;;;;;;;;2071120;28;19913;-71
2023/09/08 08:35:07;;;;;;;;;;;;;;;;;;2075737;28;19925;-68
2023/09/08 08:36:27;;;;;;;;;;;;;;;;;;2075223;28;19975;-71
2023/09/08 08:37:48;;;;;;;;;;;;;;;;;;2070560;28;19960;-71
2023/09/08 08:39:09;;;;;;;;;;;;;;;;;;2070989;28;20365;-71
2023/09/08 08:40:29;;;;;;;;;;;;;;;;;;2074090;28;19914;-70
2023/09/08 08:41:50;;;;;;;;;;;;;;;;;;2077873;28;20365;-71
2023/09/08 08:43:11;;;;;;;;;;;;;;;;;;2073800;28;19909;-71
2023/09/08 08:44:32;;;;;;;;;;;;;;;;;;2066984;28;19933;-71
2023/09/08 08:45:53;;;;;;;;;;;;;;;;;;2070544;28;20051;-70
2023/09/08 08:47:13;;;;;;;;;;;;;;;;;;2072956;28;19913;-71
2023/09/08 08:48:34;;;;;;;;;;;;;;;;;;2075519;28;19948;-71
2023/09/08 08:49:55;;;;;;;;;;;;;;;;;;2072097;28;19944;-71
2023/09/08 08:51:15;;;;;;;;;;;;;;;;;;2072634;28;19921;-71
2023/09/08 08:52:36;;;;;;;;;;;;;;;;;;2073812;28;19916;-73
2023/09/08 08:53:57;;;;;;;;;;;;;;;;;;2065155;28;19910;-73
2023/09/08 08:55:18;;;;;;;;;;;;;;;;;;2071950;28;19979;-71
2023/09/08 08:56:38;;;;;;;;;;;;;;;;;;2074498;28;19925;-73
2023/09/08 08:57:59;;;;;;;;;;;;;;;;;;2073164;28;19913;-73
2023/09/08 08:59:20;;;;;;;;;;;;;;;;;;2073088;28;19956;-72
2023/09/08 09:00:40;;;;;;;;;;;;;;;;;;2072884;28;19909;-74
2023/09/08 09:02:01;;;;;;;;;;;;;;;;;;2072951;28;19914;-74
2023/09/08 09:03:22;;;;;;;;;;;;;;;;;;2074211;28;20376;-73
2023/09/08 09:04:42;;;;;;;;;;;;;;;;;;2069480;28;19929;-74
2023/09/08 09:06:03;;;;;;;;;;;;;;;;;;2076736;28;19910;-75
2023/09/08 09:07:24;;;;;;;;;;;;;;;;;;2071559;28;19913;-75
2023/09/08 09:08:45;;;;;;;;;;;;;;;;;;2071113;28;20170;-74
2023/09/08 09:10:05;;;;;;;;;;;;;;;;;;2072514;28;19917;-76
2023/09/08 09:11:26;;;;;;;;;;;;;;;;;;2070417;28;20802;-73